Time;durP1;ratioP1;P1;durP2;ratioP2;P2;SDS_P1;SDS_P2;PMS_P1;PMS_P2;Temp;Humidity;BMP_temperature;BMP_pressure;BME280_temperature;BME280_humidity;BME280_pressure;Samples;Min_cycle;Max_cycle;Signal;HPM_P1;HPM_P2
2023/06/06 00:00:24;;;;;;;2.10;2.00;;;25.40;47.00;;;;;;5023655;28;20566;-68
2023/06/06 00:02:53;;;;;;;3.10;2.30;;;25.40;47.00;;;;;;5019869;28;20435;-69
2023/06/06 00:05:25;;;;;;;3.33;1.97;;;25.40;46.90;;;;;;5031000;28;20473;-67
2023/06/06 00:07:54;;;;;;;2.20;2.00;;;25.40;47.20;;;;;;5031588;28;20486;-68
2023/06/06 00:10:24;;;;;;;2.37;2.17;;;25.40;47.10;;;;;;5029367;28;20480;-67
2023/06/06 00:12:53;;;;;;;3.10;2.43;;;25.40;47.00;;;;;;5022026;28;20467;-68
2023/06/06 00:15:21;;;;;;;2.50;2.30;;;25.40;47.10;;;;;;5038905;28;20540;-67
2023/06/06 00:17:55;;;;;;;2.93;2.20;;;25.40;47.10;;;;;;5029731;28;20487;-69
2023/06/06 00:20:24;;;;;;;2.23;2.07;;;25.40;47.10;;;;;;5026972;28;20538;-69
2023/06/06 00:22:53;;;;;;;2.57;1.90;;;25.40;47.20;;;;;;5037903;28;21033;-68
2023/06/06 00:25:22;;;;;;;5.33;2.40;;;25.40;47.10;;;;;;5016009;28;20478;-68
2023/06/06 00:27:51;;;;;;;2.10;1.90;;;25.40;47.20;;;;;;5023404;28;20458;-69
2023/06/06 00:30:20;;;;;;;2.57;2.33;;;25.40;47.10;;;;;;5021656;28;20459;-67
2023/06/06 00:32:48;;;;;;;2.70;2.50;;;25.40;47.10;;;;;;5042862;28;20478;-67
2023/06/06 00:35:16;;;;;;;2.30;2.10;;;25.40;47.00;;;;;;5026445;28;20594;-68
2023/06/06 00:37:45;;;;;;;2.17;2.03;;;25.40;47.20;;;;;;5025828;28;20939;-68
2023/06/06 00:40:14;;;;;;;3.97;2.00;;;25.40;47.10;;;;;;5030878;28;20516;-69
2023/06/06 00:42:42;;;;;;;2.50;2.17;;;25.40;47.10;;;;;;5017132;28;20427;-69
2023/06/06 00:45:12;;;;;;;2.43;2.23;;;25.40;47.30;;;;;;5026001;28;20481;-68
2023/06/06 00:47:41;;;;;;;2.53;2.33;;;25.40;47.20;;;;;;5027986;28;20832;-68
2023/06/06 00:50:12;;;;;;;2.53;2.00;;;25.40;47.30;;;;;;5033213;28;20591;-68
2023/06/06 00:52:46;;;;;;;2.87;2.67;;;25.40;47.40;;;;;;5033745;28;21034;-68
2023/06/06 00:55:17;;;;;;;2.87;2.60;;;25.40;47.30;;;;;;5023075;28;20897;-68
2023/06/06 00:57:46;;;;;;;2.20;2.00;;;25.40;47.40;;;;;;5028981;28;20435;-69
2023/06/06 01:00:17;;;;;;;2.00;1.90;;;25.30;47.40;;;;;;5030958;28;20494;-68
2023/06/06 01:02:48;;;;;;;2.83;2.50;;;25.30;47.30;;;;;;5033347;28;20525;-68
2023/06/06 01:05:18;;;;;;;2.83;1.87;;;25.30;47.30;;;;;;5013442;28;20487;-68
2023/06/06 01:07:49;;;;;;;2.60;2.40;;;25.30;47.40;;;;;;5028751;28;20424;-69
2023/06/06 01:10:18;;;;;;;2.27;2.07;;;25.30;47.50;;;;;;5037655;28;20493;-68
2023/06/06 01:12:52;;;;;;;2.60;2.30;;;25.30;47.50;;;;;;5033207;28;20562;-68
2023/06/06 01:15:25;;;;;;;2.00;1.90;;;25.30;47.40;;;;;;5016911;28;20475;-68
2023/06/06 01:17:56;;;;;;;3.00;2.40;;;25.30;47.50;;;;;;5021259;28;20887;-68
2023/06/06 01:20:25;;;;;;;3.20;2.33;;;25.30;47.60;;;;;;5033334;28;20466;-68
2023/06/06 01:22:56;;;;;;;2.60;2.40;;;25.30;47.60;;;;;;5026618;28;20449;-68
2023/06/06 01:25:25;;;;;;;3.10;1.80;;;25.30;47.60;;;;;;5030584;28;21020;-68
2023/06/06 01:27:55;;;;;;;2.30;2.10;;;25.30;47.50;;;;;;5015983;28;20454;-67
2023/06/06 01:30:27;;;;;;;3.17;2.87;;;25.30;47.50;;;;;;5023969;28;20482;-68
2023/06/06 01:33:04;;;;;;;2.70;2.50;;;25.30;47.60;;;;;;5016919;28;20498;-69
2023/06/06 01:35:42;;;;;;;3.00;2.60;;;25.30;47.60;;;;;;5012158;28;20919;-68
2023/06/06 01:38:17;;;;;;;2.40;2.20;;;25.30;47.60;;;;;;5026072;28;20438;-68
2023/06/06 01:40:48;;;;;;;3.10;2.43;;;25.30;47.60;;;;;;5035584;28;20811;-68
2023/06/06 01:43:18;;;;;;;2.83;2.13;;;25.20;47.60;;;;;;5016139;28;20431;-69
2023/06/06 01:45:47;;;;;;;2.30;2.10;;;25.30;47.60;;;;;;5024640;28;20546;-68
2023/06/06 01:48:16;;;;;;;4.00;2.60;;;25.20;47.50;;;;;;5016467;28;20436;-69
2023/06/06 01:50:45;;;;;;;3.20;2.57;;;25.20;47.60;;;;;;5033455;28;20451;-68
2023/06/06 01:53:14;;;;;;;2.70;2.37;;;25.20;47.80;;;;;;5014626;28;20474;-68
2023/06/06 01:55:43;;;;;;;2.97;2.33;;;25.20;47.80;;;;;;5027672;28;20470;-68
2023/06/06 01:58:12;;;;;;;2.63;2.43;;;25.20;47.80;;;;;;5025484;28;20607;-69
2023/06/06 02:00:40;;;;;;;2.43;2.23;;;25.20;47.80;;;;;;5016501;28;20935;-69
2023/06/06 02:03:08;;;;;;;5.60;2.87;;;25.20;47.70;;;;;;5024314;28;20428;-68
2023/06/06 02:05:37;;;;;;;3.47;2.20;;;25.20;47.80;;;;;;5021927;28;20450;-68
2023/06/06 02:08:05;;;;;;;3.00;2.80;;;25.20;47.80;;;;;;5019545;28;20978;-68
2023/06/06 02:10:35;;;;;;;3.53;2.40;;;25.20;47.90;;;;;;5017188;28;20464;-68
2023/06/06 02:13:03;;;;;;;4.00;2.90;;;25.20;47.90;;;;;;5036876;28;20487;-67
2023/06/06 02:15:32;;;;;;;2.90;2.70;;;25.20;47.90;;;;;;5040628;28;20474;-68
2023/06/06 02:18:01;;;;;;;2.53;2.33;;;25.20;48.00;;;;;;5039998;28;20454;-68
2023/06/06 02:20:31;;;;;;;3.00;2.60;;;25.20;48.00;;;;;;5039680;28;20475;-69
2023/06/06 02:23:01;;;;;;;3.07;2.77;;;25.20;48.10;;;;;;5033418;28;20528;-68
2023/06/06 02:25:33;;;;;;;3.13;2.70;;;25.20;48.10;;;;;;5017647;28;20998;-68
2023/06/06 02:28:03;;;;;;;2.83;2.63;;;25.10;48.00;;;;;;5024543;28;20459;-69
2023/06/06 02:30:32;;;;;;;3.47;2.90;;;25.20;48.10;;;;;;5018080;28;20476;-68
2023/06/06 02:33:01;;;;;;;2.90;2.70;;;25.10;48.00;;;;;;5041578;28;20819;-68
2023/06/06 02:35:29;;;;;;;3.10;2.80;;;25.10;48.10;;;;;;5023768;28;20554;-68
2023/06/06 02:37:58;;;;;;;4.00;2.77;;;25.10;48.10;;;;;;5027917;28;20446;-68
2023/06/06 02:40:27;;;;;;;5.47;2.33;;;25.10;48.10;;;;;;5029539;28;20470;-68
2023/06/06 02:42:59;;;;;;;3.83;2.90;;;25.10;48.20;;;;;;5028074;28;20793;-68
2023/06/06 02:45:30;;;;;;;3.63;2.77;;;25.10;48.10;;;;;;5013520;28;20520;-68
2023/06/06 02:47:58;;;;;;;2.50;2.30;;;25.10;48.20;;;;;;5036769;28;20962;-68
2023/06/06 02:50:28;;;;;;;3.33;2.70;;;25.10;48.20;;;;;;5023341;28;20845;-68
2023/06/06 02:52:57;;;;;;;4.00;3.10;;;25.10;48.30;;;;;;5022146;28;20988;-68
2023/06/06 02:55:25;;;;;;;2.70;2.50;;;25.10;48.40;;;;;;5029356;28;20479;-68
2023/06/06 02:57:53;;;;;;;3.23;2.90;;;25.10;48.30;;;;;;5022206;28;20443;-68
2023/06/06 03:00:22;;;;;;;3.47;3.17;;;25.10;48.20;;;;;;5026343;28;20501;-68
2023/06/06 03:02:52;;;;;;;3.10;2.80;;;25.10;48.30;;;;;;5035233;28;20454;-69
2023/06/06 03:05:22;;;;;;;3.20;2.90;;;25.10;48.40;;;;;;5013669;28;20826;-68
2023/06/06 03:07:50;;;;;;;3.17;2.30;;;25.10;48.40;;;;;;5019914;28;21007;-69
2023/06/06 03:10:19;;;;;;;4.40;2.97;;;25.10;48.40;;;;;;5034511;28;20502;-68
2023/06/06 03:12:50;;;;;;;3.10;2.80;;;25.10;48.30;;;;;;5013852;28;20443;-67
2023/06/06 03:15:20;;;;;;;2.73;2.43;;;25.10;48.40;;;;;;5027926;28;20531;-68
2023/06/06 03:17:52;;;;;;;2.63;2.43;;;25.00;48.40;;;;;;5037134;28;20449;-67
2023/06/06 03:20:25;;;;;;;2.53;2.33;;;25.00;48.40;;;;;;5022922;28;20990;-68
2023/06/06 03:23:04;;;;;;;5.17;2.90;;;25.00;48.40;;;;;;5034204;28;20784;-68
2023/06/06 03:25:33;;;;;;;3.47;3.17;;;25.00;49.70;;;;;;5031546;28;21024;-67
2023/06/06 03:28:02;;;;;;;3.33;3.00;;;25.00;48.60;;;;;;5020659;28;20801;-69
2023/06/06 03:30:30;;;;;;;3.60;3.30;;;25.00;48.50;;;;;;5020567;28;20482;-68
2023/06/06 03:33:03;;;;;;;3.37;3.17;;;25.00;48.60;;;;;;5041119;28;20482;-68
2023/06/06 03:35:33;;;;;;;3.10;2.50;;;25.00;48.60;;;;;;5038970;28;20643;-68
2023/06/06 03:38:03;;;;;;;3.63;2.80;;;25.00;48.60;;;;;;5027677;28;20472;-68
2023/06/06 03:40:32;;;;;;;2.70;2.50;;;25.00;48.80;;;;;;5039965;28;20481;-67
2023/06/06 03:43:01;;;;;;;2.53;2.30;;;24.90;48.70;;;;;;5033860;28;20457;-68
2023/06/06 03:45:32;;;;;;;2.93;2.63;;;25.00;48.70;;;;;;5032071;28;20458;-68
2023/06/06 03:48:01;;;;;;;3.13;2.80;;;24.90;48.60;;;;;;5038714;28;20440;-68
2023/06/06 03:50:30;;;;;;;4.20;3.47;;;24.90;48.70;;;;;;5018561;28;20497;-68
2023/06/06 03:52:58;;;;;;;4.80;3.37;;;24.90;48.60;;;;;;5017636;28;20791;-67
2023/06/06 03:55:28;;;;;;;4.07;2.80;;;24.90;48.60;;;;;;5032378;28;20474;-68
2023/06/06 03:57:56;;;;;;;2.90;2.63;;;24.90;48.60;;;;;;5041109;28;20453;-69
2023/06/06 04:00:25;;;;;;;3.17;2.60;;;24.90;48.70;;;;;;5023514;28;20459;-68
2023/06/06 04:02:53;;;;;;;3.23;2.90;;;24.90;48.90;;;;;;5023625;28;20444;-68
2023/06/06 04:05:24;;;;;;;3.30;2.93;;;24.90;48.90;;;;;;5030814;28;20457;-68
2023/06/06 04:07:52;;;;;;;2.80;2.60;;;24.90;49.00;;;;;;5032184;28;20902;-68
2023/06/06 04:10:21;;;;;;;3.73;3.43;;;24.90;49.00;;;;;;5025934;28;20530;-67
2023/06/06 04:12:50;;;;;;;3.30;3.00;;;24.90;48.90;;;;;;5035266;28;20456;-69
2023/06/06 04:15:18;;;;;;;7.77;3.40;;;24.90;48.90;;;;;;5035716;28;20891;-68
2023/06/06 04:17:47;;;;;;;3.43;3.13;;;24.90;49.00;;;;;;5036243;28;20928;-68
2023/06/06 04:20:15;;;;;;;3.67;3.27;;;24.90;49.00;;;;;;5021356;28;20831;-68
2023/06/06 04:22:46;;;;;;;3.57;3.27;;;24.90;49.00;;;;;;5032310;28;20544;-67
2023/06/06 04:25:17;;;;;;;3.27;2.97;;;24.90;49.00;;;;;;5041545;28;20476;-68
2023/06/06 04:27:48;;;;;;;3.73;3.43;;;24.80;49.00;;;;;;5012304;28;20436;-68
2023/06/06 04:30:22;;;;;;;2.90;2.70;;;24.80;49.00;;;;;;5016086;28;20502;-68
2023/06/06 04:32:53;;;;;;;3.97;3.13;;;24.80;49.10;;;;;;5030387;28;20455;-68
2023/06/06 04:35:22;;;;;;;3.53;3.17;;;24.80;49.00;;;;;;5035037;28;20469;-67
2023/06/06 04:37:53;;;;;;;3.57;3.20;;;24.80;49.10;;;;;;5025443;28;20434;-68
2023/06/06 04:40:22;;;;;;;3.37;3.03;;;24.80;49.10;;;;;;5039310;28;21151;-69
2023/06/06 04:42:58;;;;;;;5.30;3.70;;;24.80;49.10;;;;;;5031091;28;20444;-68
2023/06/06 04:45:26;;;;;;;4.13;3.73;;;24.80;49.20;;;;;;5027684;28;20476;-68
2023/06/06 04:47:57;;;;;;;2.67;2.47;;;24.80;49.20;;;;;;5025488;28;20471;-68
2023/06/06 04:50:27;;;;;;;3.47;3.17;;;24.80;49.10;;;;;;5027056;28;21027;-69
2023/06/06 04:52:57;;;;;;;3.20;2.87;;;24.80;49.20;;;;;;5033741;28;20574;-68
2023/06/06 04:55:27;;;;;;;2.97;2.77;;;24.80;49.10;;;;;;5036067;28;20474;-68
2023/06/06 04:57:58;;;;;;;3.00;2.70;;;24.80;49.30;;;;;;5011955;28;20454;-69
2023/06/06 05:00:26;;;;;;;3.53;3.17;;;24.80;49.20;;;;;;5013679;28;20483;-69
2023/06/06 05:02:55;;;;;;;3.70;3.00;;;24.80;49.20;;;;;;5025796;28;21530;-67
2023/06/06 05:05:24;;;;;;;4.13;3.00;;;24.80;49.30;;;;;;5027727;28;20564;-69
2023/06/06 05:07:52;;;;;;;3.93;3.53;;;24.80;49.40;;;;;;5018145;28;20961;-68
2023/06/06 05:10:22;;;;;;;4.20;3.80;;;24.70;49.20;;;;;;5015353;28;20816;-68
2023/06/06 05:12:51;;;;;;;4.10;3.10;;;24.70;49.10;;;;;;5033298;28;20438;-69
2023/06/06 05:15:19;;;;;;;5.00;3.00;;;24.70;49.20;;;;;;5017585;28;20503;-67
2023/06/06 05:17:57;;;;;;;3.93;3.60;;;24.70;49.20;;;;;;5024853;28;20445;-68
2023/06/06 05:20:25;;;;;;;3.43;3.13;;;24.70;49.20;;;;;;5006756;28;21074;-67
2023/06/06 05:22:53;;;;;;;3.50;3.20;;;24.70;49.30;;;;;;5016374;28;20498;-67
2023/06/06 05:25:23;;;;;;;3.90;3.20;;;24.70;49.40;;;;;;5032650;28;20485;-68
2023/06/06 05:27:52;;;;;;;2.80;2.60;;;24.70;49.30;;;;;;5015467;28;20478;-69
2023/06/06 05:30:20;;;;;;;3.90;3.27;;;24.70;49.30;;;;;;5025807;28;20474;-68
2023/06/06 05:32:49;;;;;;;4.60;3.67;;;24.70;49.30;;;;;;5017401;28;20459;-69
2023/06/06 05:35:18;;;;;;;3.33;3.03;;;24.70;49.30;;;;;;5023982;28;20592;-67
2023/06/06 05:37:47;;;;;;;4.33;3.07;;;24.70;50.40;;;;;;5023640;28;20469;-67
2023/06/06 05:40:15;;;;;;;3.47;3.17;;;24.70;49.30;;;;;;5019654;28;20476;-67
2023/06/06 05:42:45;;;;;;;3.33;3.03;;;24.70;49.30;;;;;;5030397;28;20425;-65
2023/06/06 05:45:13;;;;;;;18.00;11.83;;;24.70;49.30;;;;;;5030964;28;20471;-69
2023/06/06 05:47:42;;;;;;;16.63;11.07;;;24.60;46.20;;;;;;5014702;28;20481;-69
2023/06/06 05:50:10;;;;;;;13.27;9.47;;;24.40;46.70;;;;;;5007923;28;20474;-69
2023/06/06 05:52:39;;;;;;;13.27;8.80;;;24.30;47.10;;;;;;5002464;28;20452;-70
2023/06/06 05:55:10;;;;;;;13.27;9.00;;;24.40;46.90;;;;;;5038283;28;20500;-70
2023/06/06 05:57:38;;;;;;;12.20;9.50;;;24.40;47.70;;;;;;5031399;28;20474;-68
2023/06/06 06:00:10;;;;;;;10.30;8.10;;;24.40;47.10;;;;;;5034053;28;20467;-70
2023/06/06 06:02:41;;;;;;;10.60;7.60;;;24.40;47.00;;;;;;5041056;28;20537;-69
2023/06/06 06:05:10;;;;;;;7.83;7.03;;;24.30;46.80;;;;;;5034352;28;20540;-69
2023/06/06 06:07:39;;;;;;;8.00;6.87;;;24.30;47.00;;;;;;5017336;28;20435;-70
2023/06/06 06:10:08;;;;;;;12.97;7.97;;;24.30;46.90;;;;;;5016555;28;20476;-69
2023/06/06 06:12:36;;;;;;;12.13;7.60;;;24.30;46.80;;;;;;5014707;28;20428;-69
2023/06/06 06:15:06;;;;;;;9.13;5.87;;;24.30;46.70;;;;;;4995072;28;21045;-70
2023/06/06 06:17:35;;;;;;;8.13;6.50;;;24.30;46.90;;;;;;5040589;28;20870;-69
2023/06/06 06:20:08;;;;;;;7.60;6.70;;;24.30;46.70;;;;;;5033253;28;20473;-70
2023/06/06 06:22:37;;;;;;;8.13;6.70;;;24.30;46.40;;;;;;5034273;28;20444;-70
2023/06/06 06:25:08;;;;;;;7.20;6.50;;;24.30;46.60;;;;;;5024711;28;20480;-69
2023/06/06 06:27:37;;;;;;;10.77;7.27;;;24.30;46.60;;;;;;5025801;28;20443;-69
2023/06/06 06:30:06;;;;;;;7.67;6.87;;;24.30;46.50;;;;;;5016951;28;20527;-70
2023/06/06 06:32:38;;;;;;;7.13;6.53;;;24.30;46.40;;;;;;5021377;28;20440;-69
2023/06/06 06:35:10;;;;;;;7.23;6.40;;;24.30;46.20;;;;;;5034733;28;20497;-70
2023/06/06 06:37:40;;;;;;;7.53;6.70;;;24.30;46.20;;;;;;5024834;28;20442;-70
2023/06/06 06:40:10;;;;;;;7.43;6.20;;;24.40;46.20;;;;;;5019918;28;20487;-70
2023/06/06 06:42:41;;;;;;;9.93;7.10;;;24.40;46.00;;;;;;5014892;28;20454;-70
2023/06/06 06:45:26;;;;;;;7.17;6.50;;;24.40;46.00;;;;;;5021758;28;20503;-70
2023/06/06 06:47:58;;;;;;;9.07;6.57;;;24.40;46.00;;;;;;5023600;28;20449;-69
2023/06/06 06:50:27;;;;;;;10.13;7.50;;;24.40;46.00;;;;;;5017726;28;21044;-70
2023/06/06 06:52:57;;;;;;;10.70;6.70;;;24.50;45.90;;;;;;5024037;28;20423;-70
2023/06/06 06:55:25;;;;;;;9.23;7.20;;;24.50;45.90;;;;;;5018030;28;20486;-69
2023/06/06 06:57:56;;;;;;;6.83;6.03;;;24.50;45.90;;;;;;5010548;28;20989;-68
2023/06/06 07:00:25;;;;;;;6.27;5.67;;;24.50;45.90;;;;;;5036328;28;20480;-69
2023/06/06 07:02:58;;;;;;;8.00;6.90;;;24.50;45.90;;;;;;5023336;28;20452;-70
2023/06/06 07:05:26;;;;;;;13.13;7.87;;;24.50;46.00;;;;;;5019504;28;21188;-69
2023/06/06 07:07:56;;;;;;;9.47;6.80;;;24.50;45.90;;;;;;5018867;28;20477;-69
2023/06/06 07:10:26;;;;;;;8.83;7.27;;;24.50;45.80;;;;;;5015702;28;20541;-69
2023/06/06 07:12:55;;;;;;;11.10;8.50;;;24.50;45.80;;;;;;5035267;28;20471;-69
2023/06/06 07:15:27;;;;;;;8.83;7.60;;;24.50;45.90;;;;;;5034537;28;20479;-68
2023/06/06 07:17:57;;;;;;;9.47;8.37;;;24.50;45.90;;;;;;5018657;28;20869;-69
2023/06/06 07:20:26;;;;;;;10.20;7.50;;;24.40;46.00;;;;;;5017439;28;20480;-70
2023/06/06 07:22:55;;;;;;;7.97;6.80;;;24.40;46.20;;;;;;5020346;28;20478;-70
2023/06/06 07:25:24;;;;;;;13.80;9.60;;;24.30;46.30;;;;;;5000584;28;20486;-70
2023/06/06 07:27:53;;;;;;;11.17;8.47;;;24.30;46.40;;;;;;5023389;28;20956;-70
2023/06/06 07:30:22;;;;;;;10.60;7.57;;;24.30;46.50;;;;;;5025994;28;20468;-68
2023/06/06 07:32:51;;;;;;;7.17;6.03;;;24.30;46.90;;;;;;5023774;28;20480;-68
2023/06/06 07:35:22;;;;;;;6.50;5.87;;;24.30;46.60;;;;;;5018890;28;20476;-68
2023/06/06 07:37:51;;;;;;;7.50;6.00;;;24.30;46.80;;;;;;5014679;28;20482;-66
2023/06/06 07:40:19;;;;;;;6.20;5.57;;;24.30;47.10;;;;;;5025293;28;20472;-68
2023/06/06 07:42:48;;;;;;;7.30;5.50;;;24.30;47.20;;;;;;5025927;28;20444;-68
2023/06/06 07:45:16;;;;;;;8.37;6.50;;;24.20;47.10;;;;;;5022643;28;20475;-68
2023/06/06 07:47:45;;;;;;;6.13;5.50;;;24.30;47.30;;;;;;5022056;28;20858;-68
2023/06/06 07:50:14;;;;;;;5.70;5.20;;;24.20;47.20;;;;;;5027448;28;20471;-67
2023/06/06 07:52:45;;;;;;;5.07;4.60;;;24.20;47.30;;;;;;5021682;28;20498;-68
2023/06/06 07:55:13;;;;;;;7.60;5.53;;;24.30;47.40;;;;;;5024473;28;20477;-68
2023/06/06 07:57:45;;;;;;;7.70;6.07;;;24.30;47.60;;;;;;5025245;28;20490;-68
2023/06/06 08:00:14;;;;;;;5.93;4.40;;;24.30;47.50;;;;;;5012451;28;20821;-66
2023/06/06 08:02:43;;;;;;;5.07;4.60;;;24.30;47.60;;;;;;5025849;28;20450;-68
2023/06/06 08:05:12;;;;;;;7.87;4.90;;;24.30;47.60;;;;;;5031524;28;20548;-67
2023/06/06 08:07:46;;;;;;;5.60;5.10;;;24.30;47.60;;;;;;5019597;28;20455;-67
2023/06/06 08:10:14;;;;;;;5.60;5.10;;;24.30;47.70;;;;;;5011600;28;20517;-68
2023/06/06 08:12:43;;;;;;;5.93;4.80;;;24.30;48.90;;;;;;5020948;28;20491;-68
2023/06/06 08:15:13;;;;;;;5.30;4.80;;;24.30;47.80;;;;;;5036927;28;20506;-71
2023/06/06 08:17:42;;;;;;;4.57;4.10;;;24.30;47.80;;;;;;5035058;28;20475;-71
2023/06/06 08:20:11;;;;;;;5.00;4.60;;;24.30;47.80;;;;;;5038213;28;20531;-71
2023/06/06 08:22:50;;;;;;;5.23;4.73;;;24.30;48.00;;;;;;5039977;28;20469;-71
2023/06/06 08:25:19;;;;;;;5.40;4.90;;;24.30;47.90;;;;;;5035832;28;20631;-71
2023/06/06 08:27:47;;;;;;;5.63;5.13;;;24.30;48.00;;;;;;5006474;28;20447;-71
2023/06/06 08:30:16;;;;;;;4.80;4.30;;;24.30;48.00;;;;;;5019710;28;20478;-71
2023/06/06 08:32:45;;;;;;;6.30;5.33;;;24.30;48.10;;;;;;5032427;28;20452;-71
2023/06/06 08:35:13;;;;;;;5.03;4.53;;;24.30;48.10;;;;;;5031080;28;21015;-72
2023/06/06 08:37:42;;;;;;;5.63;4.37;;;24.30;48.10;;;;;;5030698;28;20898;-71
2023/06/06 08:40:12;;;;;;;5.07;4.60;;;24.30;48.10;;;;;;5022900;28;21005;-70
2023/06/06 08:42:45;;;;;;;4.53;4.13;;;24.30;48.20;;;;;;5030290;28;20951;-70
2023/06/06 08:45:15;;;;;;;4.23;3.83;;;24.30;48.20;;;;;;5019736;28;20465;-70
2023/06/06 08:47:44;;;;;;;5.10;4.70;;;24.30;48.30;;;;;;5040865;28;20451;-70
2023/06/06 08:50:14;;;;;;;6.73;4.53;;;24.30;48.30;;;;;;5015391;28;20898;-71
2023/06/06 08:52:42;;;;;;;5.03;4.50;;;24.30;48.30;;;;;;5021067;28;20444;-70
2023/06/06 08:55:13;;;;;;;5.00;4.60;;;24.30;48.30;;;;;;5026728;28;20482;-71
2023/06/06 08:57:43;;;;;;;5.17;4.57;;;24.30;48.50;;;;;;5020757;28;20484;-71
2023/06/06 09:00:21;;;;;;;4.67;4.27;;;24.30;48.50;;;;;;5009501;28;20847;-70
2023/06/06 09:02:52;;;;;;;4.60;4.20;;;24.30;48.50;;;;;;5024615;28;20552;-71
2023/06/06 09:05:22;;;;;;;4.50;4.20;;;24.30;48.60;;;;;;5025454;28;20583;-71
2023/06/06 09:07:51;;;;;;;5.23;4.63;;;24.30;48.60;;;;;;5041448;28;20445;-70
2023/06/06 09:10:21;;;;;;;5.50;4.47;;;24.30;48.60;;;;;;5016482;28;20562;-71
2023/06/06 09:12:50;;;;;;;5.17;4.47;;;24.30;48.70;;;;;;5019069;28;20471;-70
2023/06/06 09:15:19;;;;;;;6.03;4.07;;;24.30;48.80;;;;;;5024597;28;20555;-71
2023/06/06 09:17:47;;;;;;;4.70;4.30;;;24.30;48.70;;;;;;5026152;28;20478;-70
2023/06/06 09:20:17;;;;;;;4.80;4.10;;;24.30;48.80;;;;;;5042912;28;20461;-71
2023/06/06 09:22:47;;;;;;;4.30;4.00;;;24.30;48.90;;;;;;5025465;28;20458;-72
2023/06/06 09:25:21;;;;;;;4.53;4.17;;;24.30;48.90;;;;;;5023195;28;20468;-71
2023/06/06 09:27:58;;;;;;;7.17;4.97;;;24.30;48.90;;;;;;5016719;28;20431;-71
2023/06/06 09:30:28;;;;;;;4.33;3.93;;;24.30;48.90;;;;;;5024106;28;20467;-72
2023/06/06 09:32:58;;;;;;;4.70;4.40;;;24.30;49.10;;;;;;5014193;28;20964;-71
2023/06/06 09:35:31;;;;;;;5.33;4.87;;;24.30;49.10;;;;;;5012267;28;20532;-70
2023/06/06 09:38:06;;;;;;;5.00;4.57;;;24.30;49.10;;;;;;5009225;28;20467;-70
2023/06/06 09:40:44;;;;;;;4.83;4.33;;;24.30;49.10;;;;;;5029666;28;20456;-71
2023/06/06 09:43:13;;;;;;;5.07;4.67;;;24.30;49.20;;;;;;5023828;28;20521;-71
2023/06/06 09:45:52;;;;;;;5.27;4.87;;;24.30;49.10;;;;;;5023384;28;20485;-71
2023/06/06 09:48:22;;;;;;;4.60;4.20;;;24.30;49.20;;;;;;5014594;28;20446;-71
2023/06/06 09:50:52;;;;;;;4.70;4.30;;;24.30;49.10;;;;;;5021678;28;20942;-71
2023/06/06 09:53:24;;;;;;;6.37;4.37;;;24.30;49.10;;;;;;5016849;28;20472;-71
2023/06/06 09:55:57;;;;;;;5.90;4.40;;;24.30;49.30;;;;;;5035800;28;20595;-70
2023/06/06 09:58:27;;;;;;;4.63;4.23;;;24.30;49.20;;;;;;5022688;28;20527;-71
2023/06/06 10:00:58;;;;;;;4.37;3.93;;;24.30;49.30;;;;;;5016640;28;20479;-71
2023/06/06 10:03:27;;;;;;;4.47;4.07;;;24.30;49.30;;;;;;5020088;28;20458;-68
2023/06/06 10:05:56;;;;;;;6.20;4.60;;;24.30;49.40;;;;;;5021006;28;20588;-67
2023/06/06 10:08:26;;;;;;;5.00;4.60;;;24.30;49.30;;;;;;5018321;28;20465;-68
2023/06/06 10:10:56;;;;;;;4.00;3.60;;;24.30;49.30;;;;;;5025104;28;20448;-69
2023/06/06 10:13:25;;;;;;;5.17;4.67;;;24.30;49.40;;;;;;5026157;28;20451;-69
2023/06/06 10:15:54;;;;;;;5.20;4.40;;;24.30;49.40;;;;;;5001172;28;20463;-66
2023/06/06 10:18:23;;;;;;;8.93;4.57;;;24.30;49.40;;;;;;5019078;28;20469;-67
2023/06/06 10:20:55;;;;;;;5.00;4.50;;;24.30;49.50;;;;;;5028916;28;20449;-67
2023/06/06 10:23:24;;;;;;;4.47;4.07;;;24.30;49.40;;;;;;5033900;28;20436;-68
2023/06/06 10:25:55;;;;;;;5.30;4.80;;;24.30;49.40;;;;;;5015283;28;20473;-68
2023/06/06 10:28:30;;;;;;;7.80;4.67;;;24.30;49.50;;;;;;5030171;28;20553;-67
2023/06/06 10:31:03;;;;;;;4.17;3.80;;;24.30;49.40;;;;;;5040074;28;20557;-67
2023/06/06 10:33:41;;;;;;;6.50;4.43;;;24.40;49.50;;;;;;5016553;28;20760;-67
2023/06/06 10:36:13;;;;;;;5.50;5.00;;;24.30;49.50;;;;;;5034713;28;20464;-67
2023/06/06 10:38:43;;;;;;;4.63;4.20;;;24.40;49.50;;;;;;5036660;28;20482;-67
2023/06/06 10:41:17;;;;;;;5.10;4.20;;;24.40;49.50;;;;;;5021148;28;20452;-68
2023/06/06 10:43:51;;;;;;;4.30;3.90;;;24.40;49.60;;;;;;5019464;28;20457;-68
2023/06/06 10:46:20;;;;;;;4.87;4.47;;;24.40;49.60;;;;;;5026676;28;20513;-67
2023/06/06 10:48:56;;;;;;;5.67;5.07;;;24.40;49.60;;;;;;5016029;28;20464;-68
2023/06/06 10:51:36;;;;;;;10.50;7.20;;;24.50;50.50;;;;;;5022742;28;21479;-67
2023/06/06 10:54:15;;;;;;;9.73;5.07;;;24.50;48.50;;;;;;5030829;28;20459;-67
2023/06/06 10:56:51;;;;;;;5.90;5.27;;;24.40;48.60;;;;;;5013800;28;20545;-67
2023/06/06 10:59:27;;;;;;;11.23;5.30;;;24.40;48.70;;;;;;5031987;28;20559;-68
2023/06/06 11:01:56;;;;;;;7.57;5.33;;;24.40;49.00;;;;;;5015376;28;20447;-68
2023/06/06 11:04:27;;;;;;;7.40;4.40;;;24.40;49.00;;;;;;5021444;28;20464;-68
2023/06/06 11:07:00;;;;;;;6.53;4.80;;;24.40;48.90;;;;;;5018731;28;20498;-68
2023/06/06 11:09:31;;;;;;;5.10;4.60;;;24.40;49.10;;;;;;5032137;28;20472;-67
2023/06/06 11:12:33;;;;;;;4.97;4.47;;;24.40;49.20;;;;;;5037994;28;20439;-68
2023/06/06 11:15:05;;;;;;;5.40;4.53;;;24.40;49.40;;;;;;4962434;28;20487;-68
2023/06/06 11:17:44;;;;;;;5.00;4.23;;;24.40;49.30;;;;;;5017272;28;20463;-66
2023/06/06 11:20:19;;;;;;;4.53;4.00;;;24.40;49.10;;;;;;5025474;28;20555;-68
2023/06/06 11:22:53;;;;;;;6.43;4.77;;;24.40;49.20;;;;;;5014910;28;20455;-68
2023/06/06 11:25:23;;;;;;;4.93;4.30;;;24.40;49.10;;;;;;5025318;28;20485;-68
2023/06/06 11:27:55;;;;;;;5.53;4.80;;;24.50;48.90;;;;;;5022191;28;20471;-68
2023/06/06 11:30:24;;;;;;;4.83;3.90;;;24.50;49.20;;;;;;4999548;28;20484;-68
2023/06/06 11:32:53;;;;;;;11.53;5.03;;;24.50;49.20;;;;;;5036368;28;20453;-66
2023/06/06 11:35:21;;;;;;;9.50;4.60;;;24.70;43.70;;;;;;5021494;28;20507;-68
2023/06/06 11:37:50;;;;;;;7.50;4.13;;;24.60;44.20;;;;;;5041260;28;20446;-68
2023/06/06 11:40:19;;;;;;;9.73;4.70;;;24.60;44.60;;;;;;5020631;28;20484;-68
2023/06/06 11:42:48;;;;;;;5.63;4.60;;;24.60;44.70;;;;;;5042904;28;20441;-68
2023/06/06 11:45:19;;;;;;;6.50;4.90;;;24.60;45.10;;;;;;5011810;28;20935;-68
2023/06/06 11:47:48;;;;;;;5.27;4.63;;;24.50;45.30;;;;;;5029760;28;20447;-67
2023/06/06 11:50:27;;;;;;;4.90;4.20;;;24.50;46.00;;;;;;5023485;28;20478;-66
2023/06/06 11:52:56;;;;;;;5.60;4.30;;;24.50;45.80;;;;;;5029621;28;20422;-66
2023/06/06 11:55:36;;;;;;;4.37;3.73;;;24.50;46.10;;;;;;5030219;28;20537;-68
2023/06/06 11:58:05;;;;;;;6.67;4.00;;;24.50;46.50;;;;;;5018159;28;20444;-67
2023/06/06 12:00:36;;;;;;;6.10;4.47;;;24.50;46.50;;;;;;5038603;28;20573;-67
2023/06/06 12:03:04;;;;;;;4.70;4.17;;;24.50;46.40;;;;;;5027134;28;20445;-66
2023/06/06 12:05:34;;;;;;;4.10;3.70;;;24.60;46.60;;;;;;5028082;28;20478;-65
2023/06/06 12:08:03;;;;;;;6.37;4.30;;;24.50;46.70;;;;;;5034029;28;20861;-67
2023/06/06 12:10:32;;;;;;;7.47;4.10;;;24.60;47.00;;;;;;5028861;28;20544;-67
2023/06/06 12:13:01;;;;;;;5.10;3.80;;;24.60;47.00;;;;;;5034639;28;20444;-66
2023/06/06 12:15:46;;;;;;;4.87;3.70;;;24.60;47.10;;;;;;5031599;28;20486;-68
2023/06/06 12:18:15;;;;;;;4.97;4.47;;;24.60;47.40;;;;;;5019664;28;20941;-66
2023/06/06 12:20:45;;;;;;;4.77;3.90;;;24.60;47.10;;;;;;5007402;28;20599;-68
2023/06/06 12:23:26;;;;;;;4.53;4.13;;;24.60;47.00;;;;;;5020700;28;20994;-69
2023/06/06 12:25:57;;;;;;;6.30;4.83;;;24.70;46.50;;;;;;5024652;28;20452;-68
2023/06/06 12:28:25;;;;;;;5.37;4.77;;;24.70;46.30;;;;;;5022652;28;20495;-68
2023/06/06 12:30:57;;;;;;;8.50;3.80;;;24.80;45.10;;;;;;5025160;28;20527;-71
2023/06/06 12:33:46;;;;;;;8.93;4.40;;;24.90;44.80;;;;;;5020275;28;20447;-71
2023/06/06 12:36:26;;;;;;;6.53;3.97;;;24.90;44.50;;;;;;5039929;28;20520;-70
2023/06/06 12:39:01;;;;;;;6.80;4.43;;;24.90;44.40;;;;;;5017727;28;20571;-72
2023/06/06 12:41:36;;;;;;;5.13;4.20;;;25.00;44.50;;;;;;5029727;28;20435;-72
2023/06/06 12:44:07;;;;;;;4.67;4.27;;;25.00;44.00;;;;;;5030163;28;20472;-72
2023/06/06 12:46:40;;;;;;;8.23;5.00;;;25.00;43.80;;;;;;5031715;28;20983;-72
2023/06/06 12:49:09;;;;;;;8.30;5.90;;;25.00;43.70;;;;;;5015352;28;20531;-71
2023/06/06 12:51:39;;;;;;;9.87;4.70;;;25.10;43.60;;;;;;5015172;28;20504;-71
2023/06/06 12:54:10;;;;;;;5.30;4.80;;;25.10;43.10;;;;;;5027337;28;20488;-71
2023/06/06 12:56:38;;;;;;;8.77;5.50;;;25.10;43.30;;;;;;5016696;28;20504;-71
2023/06/06 12:59:07;;;;;;;9.23;5.97;;;25.20;43.40;;;;;;5040348;28;21055;-71
2023/06/06 13:01:35;;;;;;;7.00;4.40;;;25.10;44.70;;;;;;5029526;28;20471;-70